sensor_id;sensor_type;location;lat;lon;timestamp;pressure;altitude;pressure_sealevel;temperature;humidity
59106;BME280;44891;50.204;8.132;2022-09-09T00:01:46;97713.06;;;15.79;86.57
59106;BME280;44891;50.204;8.132;2022-09-09T00:05:59;97677.13;;;15.73;86.13
59106;BME280;44891;50.204;8.132;2022-09-09T00:10:15;97694.25;;;15.81;86.46
59106;BME280;44891;50.204;8.132;2022-09-09T00:14:25;97688.16;;;15.80;86.59
59106;BME280;44891;50.204;8.132;2022-09-09T00:18:44;97690.88;;;15.75;87.19
59106;BME280;44891;50.204;8.132;2022-09-09T00:22:57;97591.38;;;15.07;87.23
59106;BME280;44891;50.204;8.132;2022-09-09T00:27:04;97704.38;;;15.73;87.10
59106;BME280;44891;50.204;8.132;2022-09-09T00:31:12;97700.44;;;15.71;86.81
59106;BME280;44891;50.204;8.132;2022-09-09T00:35:18;97677.25;;;15.63;87.28
59106;BME280;44891;50.204;8.132;2022-09-09T00:39:27;97658.16;;;15.42;86.74
59106;BME280;44891;50.204;8.132;2022-09-09T00:43:35;97691.25;;;15.63;87.67
59106;BME280;44891;50.204;8.132;2022-09-09T00:47:44;97690.50;;;15.58;88.25
59106;BME280;44891;50.204;8.132;2022-09-09T00:51:54;97613.75;;;15.15;86.69
59106;BME280;44891;50.204;8.132;2022-09-09T00:56:08;97687.94;;;15.53;87.89
59106;BME280;44891;50.204;8.132;2022-09-09T01:00:19;97608.00;;;14.84;88.05
59106;BME280;44891;50.204;8.132;2022-09-09T01:04:28;97682.00;;;15.37;88.42
59106;BME280;44891;50.204;8.132;2022-09-09T01:08:59;97680.50;;;15.31;88.78
59106;BME280;44891;50.204;8.132;2022-09-09T01:13:12;97661.19;;;15.06;89.13
59106;BME280;44891;50.204;8.132;2022-09-09T01:17:19;97611.94;;;14.57;90.61
59106;BME280;44891;50.204;8.132;2022-09-09T01:21:38;97687.25;;;15.18;89.82
59106;BME280;44891;50.204;8.132;2022-09-09T01:26:08;97687.75;;;15.20;90.04
59106;BME280;44891;50.204;8.132;2022-09-09T01:30:16;97683.47;;;15.24;89.76
59106;BME280;44891;50.204;8.132;2022-09-09T01:34:20;97698.38;;;15.15;91.07
59106;BME280;44891;50.204;8.132;2022-09-09T01:38:24;97676.16;;;15.16;90.20
59106;BME280;44891;50.204;8.132;2022-09-09T01:42:29;97645.50;;;15.15;89.78
59106;BME280;44891;50.204;8.132;2022-09-09T01:46:33;97685.34;;;15.47;89.16
59106;BME280;44891;50.204;8.132;2022-09-09T01:50:36;97665.00;;;15.43;88.35
59106;BME280;44891;50.204;8.132;2022-09-09T01:54:39;97675.38;;;15.39;88.24
59106;BME280;44891;50.204;8.132;2022-09-09T01:59:01;97682.06;;;15.32;89.26
59106;BME280;44891;50.204;8.132;2022-09-09T02:03:09;97675.78;;;15.28;88.69
59106;BME280;44891;50.204;8.132;2022-09-09T02:07:36;97697.16;;;15.31;88.82
59106;BME280;44891;50.204;8.132;2022-09-09T02:11:46;97707.34;;;15.19;89.75
59106;BME280;44891;50.204;8.132;2022-09-09T02:16:04;97701.06;;;15.39;88.60
59106;BME280;44891;50.204;8.132;2022-09-09T02:20:12;97720.47;;;15.53;88.44
59106;BME280;44891;50.204;8.132;2022-09-09T02:24:21;97712.81;;;15.51;88.50
59106;BME280;44891;50.204;8.132;2022-09-09T02:28:34;97712.72;;;15.62;88.11
59106;BME280;44891;50.204;8.132;2022-09-09T02:32:42;97688.78;;;15.48;88.20
59106;BME280;44891;50.204;8.132;2022-09-09T02:36:48;97701.38;;;15.56;88.21
59106;BME280;44891;50.204;8.132;2022-09-09T02:40:51;97637.44;;;15.01;89.39
59106;BME280;44891;50.204;8.132;2022-09-09T02:44:54;97699.19;;;15.39;89.95
59106;BME280;44891;50.204;8.132;2022-09-09T02:49:00;97685.41;;;15.42;88.89
59106;BME280;44891;50.204;8.132;2022-09-09T02:53:10;97677.34;;;15.29;89.71
59106;BME280;44891;50.204;8.132;2022-09-09T02:57:21;97670.88;;;15.16;90.17
59106;BME280;44891;50.204;8.132;2022-09-09T03:01:24;97562.88;;;14.51;89.27
59106;BME280;44891;50.204;8.132;2022-09-09T03:05:28;97644.63;;;14.95;89.90
59106;BME280;44891;50.204;8.132;2022-09-09T03:09:31;97661.06;;;14.92;90.42
59106;BME280;44891;50.204;8.132;2022-09-09T03:13:33;97677.44;;;14.94;91.31
59106;BME280;44891;50.204;8.132;2022-09-09T03:17:36;97640.38;;;14.71;91.47
59106;BME280;44891;50.204;8.132;2022-09-09T03:21:40;97604.34;;;14.51;90.86
59106;BME280;44891;50.204;8.132;2022-09-09T03:25:46;97683.50;;;14.95;91.13
59106;BME280;44891;50.204;8.132;2022-09-09T03:29:49;97691.41;;;15.00;91.25
59106;BME280;44891;50.204;8.132;2022-09-09T03:33:55;97638.16;;;14.83;90.65
59106;BME280;44891;50.204;8.132;2022-09-09T03:38:01;97667.53;;;15.05;90.54
59106;BME280;44891;50.204;8.132;2022-09-09T03:42:06;97688.13;;;15.08;91.77
59106;BME280;44891;50.204;8.132;2022-09-09T03:46:09;97698.16;;;15.11;91.87
59106;BME280;44891;50.204;8.132;2022-09-09T03:50:12;97710.38;;;15.31;90.57
59106;BME280;44891;50.204;8.132;2022-09-09T03:54:20;97697.69;;;15.33;90.22
59106;BME280;44891;50.204;8.132;2022-09-09T03:58:23;97690.97;;;15.41;89.37
59106;BME280;44891;50.204;8.132;2022-09-09T04:02:27;97690.06;;;15.50;88.76
59106;BME280;44891;50.204;8.132;2022-09-09T04:06:30;97676.91;;;15.45;89.04
59106;BME280;44891;50.204;8.132;2022-09-09T04:10:34;97653.25;;;15.30;88.57
59106;BME280;44891;50.204;8.132;2022-09-09T04:14:38;97690.34;;;15.49;89.21
59106;BME280;44891;50.204;8.132;2022-09-09T04:18:41;97675.59;;;15.43;89.78
59106;BME280;44891;50.204;8.132;2022-09-09T04:22:44;97677.31;;;15.34;90.08
59106;BME280;44891;50.204;8.132;2022-09-09T04:26:48;97670.97;;;15.30;90.22
59106;BME280;44891;50.204;8.132;2022-09-09T04:30:51;97675.19;;;15.31;90.64
59106;BME280;44891;50.204;8.132;2022-09-09T04:34:54;97688.66;;;15.34;90.02
59106;BME280;44891;50.204;8.132;2022-09-09T04:38:56;97699.06;;;15.49;89.14
59106;BME280;44891;50.204;8.132;2022-09-09T04:43:00;97702.28;;;15.46;88.81
59106;BME280;44891;50.204;8.132;2022-09-09T04:47:04;97686.41;;;15.22;90.63
59106;BME280;44891;50.204;8.132;2022-09-09T04:51:10;97663.19;;;14.90;91.59
59106;BME280;44891;50.204;8.132;2022-09-09T04:55:13;97673.09;;;15.04;91.35
59106;BME280;44891;50.204;8.132;2022-09-09T04:59:20;97699.03;;;15.02;92.33
59106;BME280;44891;50.204;8.132;2022-09-09T05:03:27;97697.19;;;15.02;92.70
59106;BME280;44891;50.204;8.132;2022-09-09T05:07:29;97699.97;;;15.16;91.79
59106;BME280;44891;50.204;8.132;2022-09-09T05:11:33;97707.47;;;15.04;92.05
59106;BME280;44891;50.204;8.132;2022-09-09T05:15:52;97700.97;;;14.91;92.56
59106;BME280;44891;50.204;8.132;2022-09-09T05:19:55;97720.66;;;15.09;90.83
59106;BME280;44891;50.204;8.132;2022-09-09T05:23:57;97726.69;;;15.14;90.30
59106;BME280;44891;50.204;8.132;2022-09-09T05:28:01;97682.72;;;14.94;89.67
59106;BME280;44891;50.204;8.132;2022-09-09T05:32:05;97662.53;;;15.04;87.94
59106;BME280;44891;50.204;8.132;2022-09-09T05:36:11;97684.66;;;15.13;88.54
59106;BME280;44891;50.204;8.132;2022-09-09T05:40:15;97734.31;;;15.45;89.03
59106;BME280;44891;50.204;8.132;2022-09-09T05:44:17;97721.75;;;15.56;87.75
59106;BME280;44891;50.204;8.132;2022-09-09T05:48:21;97659.16;;;15.22;87.43
59106;BME280;44891;50.204;8.132;2022-09-09T05:52:24;97733.56;;;15.68;87.89
59106;BME280;44891;50.204;8.132;2022-09-09T05:56:28;97739.69;;;15.64;88.18
59106;BME280;44891;50.204;8.132;2022-09-09T06:00:32;97737.38;;;15.81;87.05
59106;BME280;44891;50.204;8.132;2022-09-09T06:04:36;97740.09;;;15.52;88.21
59106;BME280;44891;50.204;8.132;2022-09-09T06:08:41;97742.88;;;15.61;87.87
59106;BME280;44891;50.204;8.132;2022-09-09T06:12:45;97734.16;;;15.60;88.08
59106;BME280;44891;50.204;8.132;2022-09-09T06:16:47;97732.19;;;15.71;87.49
59106;BME280;44891;50.204;8.132;2022-09-09T06:21:01;97685.84;;;15.49;86.40
59106;BME280;44891;50.204;8.132;2022-09-09T06:25:07;97712.66;;;16.10;84.25
59106;BME280;44891;50.204;8.132;2022-09-09T06:29:10;97687.53;;;16.07;83.88
59106;BME280;44891;50.204;8.132;2022-09-09T06:33:14;97636.66;;;15.91;82.17
59106;BME280;44891;50.204;8.132;2022-09-09T06:37:17;97650.56;;;15.97;82.20
59106;BME280;44891;50.204;8.132;2022-09-09T06:41:25;97670.44;;;16.18;82.13
59106;BME280;44891;50.204;8.132;2022-09-09T06:45:28;97721.44;;;16.43;82.08
59106;BME280;44891;50.204;8.132;2022-09-09T06:49:33;97714.09;;;16.21;82.80
59106;BME280;44891;50.204;8.132;2022-09-09T06:53:40;97720.91;;;16.46;81.46
59106;BME280;44891;50.204;8.132;2022-09-09T06:57:43;97704.75;;;16.61;81.85
59106;BME280;44891;50.204;8.132;2022-09-09T07:01:51;97720.69;;;16.94;80.49
59106;BME280;44891;50.204;8.132;2022-09-09T07:05:55;97719.16;;;17.20;78.98
59106;BME280;44891;50.204;8.132;2022-09-09T07:10:00;97734.81;;;17.35;78.77
59106;BME280;44891;50.204;8.132;2022-09-09T07:14:05;97738.03;;;17.19;78.68
59106;BME280;44891;50.204;8.132;2022-09-09T07:18:08;97733.53;;;17.19;78.63
59106;BME280;44891;50.204;8.132;2022-09-09T07:22:11;97682.47;;;16.95;79.03
59106;BME280;44891;50.204;8.132;2022-09-09T07:26:17;97686.84;;;17.32;77.20
59106;BME280;44891;50.204;8.132;2022-09-09T07:30:20;97743.97;;;18.12;74.86
59106;BME280;44891;50.204;8.132;2022-09-09T07:34:23;97727.75;;;18.00;73.74
59106;BME280;44891;50.204;8.132;2022-09-09T07:38:26;97729.50;;;18.18;74.36
59106;BME280;44891;50.204;8.132;2022-09-09T07:42:31;97753.06;;;18.33;73.41
59106;BME280;44891;50.204;8.132;2022-09-09T07:46:33;97748.09;;;18.18;73.35
59106;BME280;44891;50.204;8.132;2022-09-09T07:50:36;97741.63;;;17.97;74.01
59106;BME280;44891;50.204;8.132;2022-09-09T07:54:39;97760.50;;;17.67;75.64
59106;BME280;44891;50.204;8.132;2022-09-09T07:58:45;97755.03;;;17.78;75.49
59106;BME280;44891;50.204;8.132;2022-09-09T08:02:47;97765.91;;;18.17;73.68
59106;BME280;44891;50.204;8.132;2022-09-09T08:06:51;97739.78;;;17.83;73.52
59106;BME280;44891;50.204;8.132;2022-09-09T08:11:01;97773.72;;;17.73;74.64
59106;BME280;44891;50.204;8.132;2022-09-09T08:15:07;97773.53;;;17.97;73.89
59106;BME280;44891;50.204;8.132;2022-09-09T08:19:09;97761.59;;;17.94;73.46
59106;BME280;44891;50.204;8.132;2022-09-09T08:23:13;97769.56;;;17.66;74.03
59106;BME280;44891;50.204;8.132;2022-09-09T08:27:16;97781.94;;;17.44;74.58
59106;BME280;44891;50.204;8.132;2022-09-09T08:31:21;97769.50;;;17.25;75.42
59106;BME280;44891;50.204;8.132;2022-09-09T08:35:23;97781.78;;;17.21;75.72
59106;BME280;44891;50.204;8.132;2022-09-09T08:39:26;97791.75;;;17.43;75.16
59106;BME280;44891;50.204;8.132;2022-09-09T08:43:29;97787.22;;;17.76;73.73
59106;BME280;44891;50.204;8.132;2022-09-09T08:47:41;97748.53;;;17.84;72.15
59106;BME280;44891;50.204;8.132;2022-09-09T08:51:49;97782.97;;;18.03;72.12
59106;BME280;44891;50.204;8.132;2022-09-09T08:55:54;97754.22;;;17.63;73.40
59106;BME280;44891;50.204;8.132;2022-09-09T09:00:11;97790.63;;;18.18;71.78
59106;BME280;44891;50.204;8.132;2022-09-09T09:04:27;97807.53;;;18.22;70.55
59106;BME280;44891;50.204;8.132;2022-09-09T09:08:37;97785.06;;;18.28;70.98
59106;BME280;44891;50.204;8.132;2022-09-09T09:12:44;97775.63;;;18.94;68.05
59106;BME280;44891;50.204;8.132;2022-09-09T09:16:53;97778.84;;;18.83;68.31
59106;BME280;44891;50.204;8.132;2022-09-09T09:21:03;97779.16;;;19.04;68.39
59106;BME280;44891;50.204;8.132;2022-09-09T09:25:13;97780.66;;;18.96;66.50
59106;BME280;44891;50.204;8.132;2022-09-09T09:29:20;97777.94;;;19.72;65.13
59106;BME280;44891;50.204;8.132;2022-09-09T09:33:27;97774.97;;;20.30;59.53
59106;BME280;44891;50.204;8.132;2022-09-09T09:37:36;97775.63;;;20.79;58.68
59106;BME280;44891;50.204;8.132;2022-09-09T09:41:42;97739.34;;;20.26;55.66
59106;BME280;44891;50.204;8.132;2022-09-09T09:45:47;97765.72;;;20.36;57.33
59106;BME280;44891;50.204;8.132;2022-09-09T09:49:52;97779.53;;;20.90;57.82
59106;BME280;44891;50.204;8.132;2022-09-09T09:54:04;97780.19;;;20.87;57.12
59106;BME280;44891;50.204;8.132;2022-09-09T09:58:15;97772.16;;;21.13;57.14
59106;BME280;44891;50.204;8.132;2022-09-09T10:02:20;97731.22;;;20.57;56.12
59106;BME280;44891;50.204;8.132;2022-09-09T10:06:31;97758.66;;;20.32;55.48
59106;BME280;44891;50.204;8.132;2022-09-09T10:10:45;97794.28;;;19.79;58.11
59106;BME280;44891;50.204;8.132;2022-09-09T10:14:56;97728.00;;;19.46;57.10
59106;BME280;44891;50.204;8.132;2022-09-09T10:19:03;97774.91;;;19.96;55.97
59106;BME280;44891;50.204;8.132;2022-09-09T10:23:16;97684.44;;;20.25;53.93
59106;BME280;44891;50.204;8.132;2022-09-09T10:27:27;97743.28;;;21.83;51.60
59106;BME280;44891;50.204;8.132;2022-09-09T10:31:38;97746.94;;;22.08;50.32
59106;BME280;44891;50.204;8.132;2022-09-09T10:35:49;97706.66;;;21.54;50.55
59106;BME280;44891;50.204;8.132;2022-09-09T10:40:02;97727.31;;;21.36;50.34
59106;BME280;44891;50.204;8.132;2022-09-09T10:44:17;97754.53;;;21.97;50.06
59106;BME280;44891;50.204;8.132;2022-09-09T10:48:31;97738.94;;;22.50;47.19
59106;BME280;44891;50.204;8.132;2022-09-09T10:52:48;97743.41;;;21.57;49.69
59106;BME280;44891;50.204;8.132;2022-09-09T10:56:57;97744.81;;;22.22;47.36
59106;BME280;44891;50.204;8.132;2022-09-09T11:01:06;97705.09;;;22.12;45.82
59106;BME280;44891;50.204;8.132;2022-09-09T11:05:17;97746.66;;;21.25;48.04
59106;BME280;44891;50.204;8.132;2022-09-09T11:09:23;97748.13;;;20.96;48.64
59106;BME280;44891;50.204;8.132;2022-09-09T11:13:31;97750.19;;;20.90;48.94
59106;BME280;44891;50.204;8.132;2022-09-09T11:17:42;97701.50;;;20.85;48.85
59106;BME280;44891;50.204;8.132;2022-09-09T11:21:48;97738.34;;;21.35;48.19
59106;BME280;44891;50.204;8.132;2022-09-09T11:25:55;97751.63;;;20.88;49.37
59106;BME280;44891;50.204;8.132;2022-09-09T11:30:14;97742.97;;;21.00;49.49
59106;BME280;44891;50.204;8.132;2022-09-09T11:34:33;97733.38;;;20.90;49.77
59106;BME280;44891;50.204;8.132;2022-09-09T11:38:44;97748.94;;;20.88;50.33
59106;BME280;44891;50.204;8.132;2022-09-09T11:42:47;97754.75;;;20.64;50.46
59106;BME280;44891;50.204;8.132;2022-09-09T11:46:51;97718.97;;;21.38;48.77
59106;BME280;44891;50.204;8.132;2022-09-09T11:51:00;97751.03;;;21.47;47.89
59106;BME280;44891;50.204;8.132;2022-09-09T11:55:09;97728.38;;;20.80;49.40
59106;BME280;44891;50.204;8.132;2022-09-09T11:59:20;97741.59;;;20.68;50.32
59106;BME280;44891;50.204;8.132;2022-09-09T12:03:35;97741.97;;;21.68;49.38
59106;BME280;44891;50.204;8.132;2022-09-09T12:07:50;97735.06;;;22.80;46.20
59106;BME280;44891;50.204;8.132;2022-09-09T12:12:05;97745.16;;;22.21;47.71
59106;BME280;44891;50.204;8.132;2022-09-09T12:16:32;97737.69;;;22.06;47.78
59106;BME280;44891;50.204;8.132;2022-09-09T12:20:36;97736.94;;;21.96;49.32
59106;BME280;44891;50.204;8.132;2022-09-09T12:24:43;97749.06;;;22.23;48.26
59106;BME280;44891;50.204;8.132;2022-09-09T12:28:54;97728.38;;;22.33;45.18
59106;BME280;44891;50.204;8.132;2022-09-09T12:33:01;97755.25;;;21.48;46.57
59106;BME280;44891;50.204;8.132;2022-09-09T12:37:08;97712.16;;;21.87;46.33
59106;BME280;44891;50.204;8.132;2022-09-09T12:41:22;97677.81;;;21.39;47.19
59106;BME280;44891;50.204;8.132;2022-09-09T12:45:26;97756.03;;;22.78;45.72
59106;BME280;44891;50.204;8.132;2022-09-09T12:49:34;97726.22;;;23.01;45.68
59106;BME280;44891;50.204;8.132;2022-09-09T12:53:39;97729.03;;;24.67;42.56
59106;BME280;44891;50.204;8.132;2022-09-09T12:57:43;97727.84;;;24.12;42.36
59106;BME280;44891;50.204;8.132;2022-09-09T13:01:55;97719.91;;;22.85;46.41
59106;BME280;44891;50.204;8.132;2022-09-09T13:05:58;97721.72;;;24.11;44.28
59106;BME280;44891;50.204;8.132;2022-09-09T13:10:01;97702.59;;;36.61;24.95
59106;BME280;44891;50.204;8.132;2022-09-09T13:14:05;97710.22;;;40.57;20.82
59106;BME280;44891;50.204;8.132;2022-09-09T13:18:13;97704.03;;;35.43;24.19
59106;BME280;44891;50.204;8.132;2022-09-09T13:22:20;97660.38;;;32.63;27.80
59106;BME280;44891;50.204;8.132;2022-09-09T13:26:25;97672.22;;;35.33;25.23
59106;BME280;44891;50.204;8.132;2022-09-09T13:30:31;97634.84;;;34.22;25.10
59106;BME280;44891;50.204;8.132;2022-09-09T13:34:36;97653.69;;;29.71;32.92
59106;BME280;44891;50.204;8.132;2022-09-09T13:38:52;97654.81;;;36.82;24.43
59106;BME280;44891;50.204;8.132;2022-09-09T13:42:56;97697.91;;;26.24;40.33
59106;BME280;44891;50.204;8.132;2022-09-09T13:47:02;97695.69;;;24.00;45.92
59106;BME280;44891;50.204;8.132;2022-09-09T13:51:28;97686.84;;;21.85;49.11
59106;BME280;44891;50.204;8.132;2022-09-09T13:55:31;97703.00;;;21.29;51.75
59106;BME280;44891;50.204;8.132;2022-09-09T13:59:33;97715.94;;;20.92;53.32
59106;BME280;44891;50.204;8.132;2022-09-09T14:03:38;97679.59;;;20.10;55.13
59106;BME280;44891;50.204;8.132;2022-09-09T14:07:40;97708.59;;;20.03;56.65
59106;BME280;44891;50.204;8.132;2022-09-09T14:11:44;97731.31;;;20.00;56.63
59106;BME280;44891;50.204;8.132;2022-09-09T14:15:48;97734.22;;;19.73;59.48
59106;BME280;44891;50.204;8.132;2022-09-09T14:19:51;97659.25;;;19.48;61.71
59106;BME280;44891;50.204;8.132;2022-09-09T14:23:53;97634.00;;;18.97;67.73
59106;BME280;44891;50.204;8.132;2022-09-09T14:27:56;97621.56;;;19.15;67.78
59106;BME280;44891;50.204;8.132;2022-09-09T14:31:58;97703.44;;;20.32;64.89
59106;BME280;44891;50.204;8.132;2022-09-09T14:36:03;97689.72;;;28.57;43.56
59106;BME280;44891;50.204;8.132;2022-09-09T14:40:06;97674.53;;;35.78;30.63
59106;BME280;44891;50.204;8.132;2022-09-09T14:44:09;97668.78;;;38.78;24.25
59106;BME280;44891;50.204;8.132;2022-09-09T14:48:11;97657.44;;;38.89;24.60
59106;BME280;44891;50.204;8.132;2022-09-09T14:52:15;97669.88;;;38.81;23.81
59106;BME280;44891;50.204;8.132;2022-09-09T14:56:19;97662.41;;;38.81;23.84
59106;BME280;44891;50.204;8.132;2022-09-09T15:00:22;97672.56;;;28.76;37.73
59106;BME280;44891;50.204;8.132;2022-09-09T15:04:25;97695.06;;;22.96;51.00
59106;BME280;44891;50.204;8.132;2022-09-09T15:08:29;97680.53;;;20.75;58.92
59106;BME280;44891;50.204;8.132;2022-09-09T15:12:31;97704.53;;;20.14;62.10
59106;BME280;44891;50.204;8.132;2022-09-09T15:16:34;97717.13;;;19.74;63.49
59106;BME280;44891;50.204;8.132;2022-09-09T15:20:36;97709.50;;;19.81;62.76
59106;BME280;44891;50.204;8.132;2022-09-09T15:24:40;97749.09;;;19.34;64.30
59106;BME280;44891;50.204;8.132;2022-09-09T15:28:43;97748.97;;;19.39;64.53
59106;BME280;44891;50.204;8.132;2022-09-09T15:32:46;97698.50;;;19.34;63.75
59106;BME280;44891;50.204;8.132;2022-09-09T15:36:48;97747.66;;;19.28;64.21
59106;BME280;44891;50.204;8.132;2022-09-09T15:40:54;97701.47;;;19.01;63.91
59106;BME280;44891;50.204;8.132;2022-09-09T15:44:56;97733.94;;;19.12;64.12
59106;BME280;44891;50.204;8.132;2022-09-09T15:49:03;97694.97;;;18.85;64.76
59106;BME280;44891;50.204;8.132;2022-09-09T15:53:06;97679.59;;;18.60;64.06
59106;BME280;44891;50.204;8.132;2022-09-09T15:57:12;97725.41;;;18.70;65.90
59106;BME280;44891;50.204;8.132;2022-09-09T16:01:14;97746.94;;;18.46;65.83
59106;BME280;44891;50.204;8.132;2022-09-09T16:05:17;97765.22;;;18.48;67.26
59106;BME280;44891;50.204;8.132;2022-09-09T16:09:20;97734.84;;;18.40;66.26
59106;BME280;44891;50.204;8.132;2022-09-09T16:13:24;97754.13;;;18.46;66.92
59106;BME280;44891;50.204;8.132;2022-09-09T16:17:26;97767.25;;;18.42;71.38
59106;BME280;44891;50.204;8.132;2022-09-09T16:21:31;97752.38;;;18.28;69.11
59106;BME280;44891;50.204;8.132;2022-09-09T16:25:33;97743.84;;;18.31;68.42
59106;BME280;44891;50.204;8.132;2022-09-09T16:29:37;97767.72;;;18.44;68.81
59106;BME280;44891;50.204;8.132;2022-09-09T16:33:39;97741.03;;;18.00;70.84
59106;BME280;44891;50.204;8.132;2022-09-09T16:37:41;97706.91;;;17.79;72.08
59106;BME280;44891;50.204;8.132;2022-09-09T16:41:45;97761.72;;;18.03;69.14
59106;BME280;44891;50.204;8.132;2022-09-09T16:45:49;97779.38;;;17.52;72.18
59106;BME280;44891;50.204;8.132;2022-09-09T16:49:51;97788.22;;;16.82;74.11
59106;BME280;44891;50.204;8.132;2022-09-09T16:53:54;97746.50;;;16.69;75.19
59106;BME280;44891;50.204;8.132;2022-09-09T16:57:56;97713.81;;;16.22;80.45
59106;BME280;44891;50.204;8.132;2022-09-09T17:02:00;97755.53;;;16.68;79.39
59106;BME280;44891;50.204;8.132;2022-09-09T17:06:09;97787.16;;;16.65;82.39
59106;BME280;44891;50.204;8.132;2022-09-09T17:10:11;97780.00;;;16.46;81.39
59106;BME280;44891;50.204;8.132;2022-09-09T17:14:15;97757.41;;;16.68;80.80
59106;BME280;44891;50.204;8.132;2022-09-09T17:18:19;97738.00;;;16.35;79.48
59106;BME280;44891;50.204;8.132;2022-09-09T17:22:21;97788.06;;;16.55;82.95
59106;BME280;44891;50.204;8.132;2022-09-09T17:26:26;97785.84;;;16.43;85.62
59106;BME280;44891;50.204;8.132;2022-09-09T17:30:28;97738.16;;;16.24;87.25
59106;BME280;44891;50.204;8.132;2022-09-09T17:34:32;97789.22;;;16.68;88.64
59106;BME280;44891;50.204;8.132;2022-09-09T17:38:35;97785.28;;;16.27;87.67
59106;BME280;44891;50.204;8.132;2022-09-09T17:42:37;97787.00;;;16.18;89.56
59106;BME280;44891;50.204;8.132;2022-09-09T17:46:40;97784.44;;;16.51;84.60
59106;BME280;44891;50.204;8.132;2022-09-09T17:50:44;97783.56;;;16.37;86.68
59106;BME280;44891;50.204;8.132;2022-09-09T17:54:47;97746.88;;;16.06;85.81
59106;BME280;44891;50.204;8.132;2022-09-09T17:58:50;97772.09;;;16.22;86.37
59106;BME280;44891;50.204;8.132;2022-09-09T18:02:53;97784.06;;;16.20;88.21
59106;BME280;44891;50.204;8.132;2022-09-09T18:06:57;97774.16;;;16.07;85.74
59106;BME280;44891;50.204;8.132;2022-09-09T18:10:59;97806.97;;;16.29;84.75
59106;BME280;44891;50.204;8.132;2022-09-09T18:15:01;97742.22;;;15.98;82.46
59106;BME280;44891;50.204;8.132;2022-09-09T18:19:06;97791.38;;;16.04;82.50
59106;BME280;44891;50.204;8.132;2022-09-09T18:23:10;97755.31;;;15.65;83.54
59106;BME280;44891;50.204;8.132;2022-09-09T18:27:12;97824.19;;;16.08;84.36
59106;BME280;44891;50.204;8.132;2022-09-09T18:31:17;97821.41;;;15.70;84.65
59106;BME280;44891;50.204;8.132;2022-09-09T18:35:19;97832.25;;;15.74;86.41
59106;BME280;44891;50.204;8.132;2022-09-09T18:39:24;97811.28;;;15.77;85.70
59106;BME280;44891;50.204;8.132;2022-09-09T18:43:27;97825.00;;;15.85;85.54
59106;BME280;44891;50.204;8.132;2022-09-09T18:47:29;97810.91;;;15.65;85.84
59106;BME280;44891;50.204;8.132;2022-09-09T18:51:32;97831.97;;;15.46;87.44
59106;BME280;44891;50.204;8.132;2022-09-09T18:55:38;97807.22;;;15.32;88.30
59106;BME280;44891;50.204;8.132;2022-09-09T18:59:40;97795.66;;;15.23;85.64
59106;BME280;44891;50.204;8.132;2022-09-09T19:03:42;97840.81;;;15.32;87.30
59106;BME280;44891;50.204;8.132;2022-09-09T19:07:44;97787.53;;;15.14;86.40
59106;BME280;44891;50.204;8.132;2022-09-09T19:11:48;97842.31;;;15.43;88.30
59106;BME280;44891;50.204;8.132;2022-09-09T19:15:50;97795.47;;;15.14;87.36
59106;BME280;44891;50.204;8.132;2022-09-09T19:19:52;97848.41;;;15.38;88.16
59106;BME280;44891;50.204;8.132;2022-09-09T19:23:56;97836.59;;;15.31;88.39
59106;BME280;44891;50.204;8.132;2022-09-09T19:28:01;97860.34;;;15.36;86.92
59106;BME280;44891;50.204;8.132;2022-09-09T19:32:04;97855.09;;;15.31;88.41
59106;BME280;44891;50.204;8.132;2022-09-09T19:36:06;97853.41;;;15.11;86.63
59106;BME280;44891;50.204;8.132;2022-09-09T19:40:09;97843.34;;;15.13;86.13
59106;BME280;44891;50.204;8.132;2022-09-09T19:44:14;97843.34;;;15.13;86.38
59106;BME280;44891;50.204;8.132;2022-09-09T19:48:17;97842.50;;;15.17;86.45
59106;BME280;44891;50.204;8.132;2022-09-09T19:52:21;97806.81;;;14.86;85.98
59106;BME280;44891;50.204;8.132;2022-09-09T19:56:24;97774.50;;;14.55;86.90
59106;BME280;44891;50.204;8.132;2022-09-09T20:00:28;97806.03;;;14.80;84.78
59106;BME280;44891;50.204;8.132;2022-09-09T20:04:31;97850.06;;;15.00;85.35
59106;BME280;44891;50.204;8.132;2022-09-09T20:08:35;97834.75;;;14.92;85.53
59106;BME280;44891;50.204;8.132;2022-09-09T20:12:37;97804.88;;;14.52;86.24
59106;BME280;44891;50.204;8.132;2022-09-09T20:16:41;97848.84;;;14.82;85.31
59106;BME280;44891;50.204;8.132;2022-09-09T20:20:45;97826.84;;;14.48;87.59
59106;BME280;44891;50.204;8.132;2022-09-09T20:24:48;97792.84;;;14.26;88.62
59106;BME280;44891;50.204;8.132;2022-09-09T20:28:52;97844.75;;;14.61;88.50
59106;BME280;44891;50.204;8.132;2022-09-09T20:32:55;97840.28;;;14.56;88.52
59106;BME280;44891;50.204;8.132;2022-09-09T20:36:59;97843.41;;;14.63;89.48
59106;BME280;44891;50.204;8.132;2022-09-09T20:41:03;97844.72;;;14.66;88.97
59106;BME280;44891;50.204;8.132;2022-09-09T20:45:05;97785.44;;;14.33;88.81
59106;BME280;44891;50.204;8.132;2022-09-09T20:49:10;97786.72;;;14.40;87.85
59106;BME280;44891;50.204;8.132;2022-09-09T20:53:13;97858.16;;;14.75;88.48
59106;BME280;44891;50.204;8.132;2022-09-09T20:57:16;97819.72;;;14.48;89.71
59106;BME280;44891;50.204;8.132;2022-09-09T21:01:21;97806.59;;;14.28;90.55
59106;BME280;44891;50.204;8.132;2022-09-09T21:05:25;97850.88;;;14.51;89.93
59106;BME280;44891;50.204;8.132;2022-09-09T21:09:27;97811.88;;;14.28;89.88
59106;BME280;44891;50.204;8.132;2022-09-09T21:13:30;97821.09;;;14.30;90.46
59106;BME280;44891;50.204;8.132;2022-09-09T21:17:33;97850.63;;;14.48;90.23
59106;BME280;44891;50.204;8.132;2022-09-09T21:21:37;97859.59;;;14.41;91.44
59106;BME280;44891;50.204;8.132;2022-09-09T21:25:39;97793.78;;;13.96;91.95
59106;BME280;44891;50.204;8.132;2022-09-09T21:29:42;97837.50;;;14.27;91.46
59106;BME280;44891;50.204;8.132;2022-09-09T21:33:44;97857.53;;;14.33;91.17
59106;BME280;44891;50.204;8.132;2022-09-09T21:37:48;97839.88;;;14.24;91.66
59106;BME280;44891;50.204;8.132;2022-09-09T21:41:50;97859.06;;;14.50;90.64